createdAt,value
2022-11-25T00:01:39.704Z,42.50
2022-11-25T00:05:43.576Z,40.40
2022-11-25T00:09:46.965Z,40.40
2022-11-25T00:13:51.664Z,35.70
2022-11-25T00:17:55.680Z,36.00
2022-11-25T00:21:59.645Z,39.40
2022-11-25T00:26:14.225Z,39.70
2022-11-25T00:30:17.785Z,36.50
2022-11-25T00:34:21.166Z,39.00
2022-11-25T00:38:24.539Z,37.10
2022-11-25T00:42:48.683Z,40.20
2022-11-25T00:46:56.055Z,39.20
2022-11-25T00:50:59.659Z,46.20
2022-11-25T00:55:04.669Z,49.40
2022-11-25T00:59:08.919Z,40.40
2022-11-25T01:03:12.251Z,52.60
2022-11-25T01:07:18.074Z,37.90
2022-11-25T01:11:23.387Z,42.60
2022-11-25T01:15:26.783Z,45.20
2022-11-25T01:19:31.355Z,45.50
2022-11-25T01:23:37.002Z,49.00
2022-11-25T01:27:43.253Z,47.70
2022-11-25T01:31:48.675Z,43.00
2022-11-25T01:35:52.558Z,44.10
2022-11-25T01:39:55.974Z,46.70
2022-11-25T01:44:26.773Z,37.80
2022-11-25T01:48:58.057Z,35.20
2022-11-25T01:53:07.172Z,31.50
2022-11-25T01:57:21.765Z,40.70
2022-11-25T02:01:27.289Z,35.30
2022-11-25T02:05:43.304Z,35.00
2022-11-25T02:09:48.859Z,36.80
2022-11-25T02:13:55.344Z,35.90
2022-11-25T02:17:59.982Z,35.50
2022-11-25T02:22:13.901Z,31.80
2022-11-25T02:26:18.017Z,29.20
2022-11-25T02:30:22.273Z,27.70
2022-11-25T02:34:25.810Z,33.40
2022-11-25T02:38:44.535Z,25.90
2022-11-25T02:42:51.028Z,32.30
2022-11-25T02:46:54.888Z,28.20
2022-11-25T02:50:59.174Z,24.30
2022-11-25T02:55:03.845Z,23.30
2022-11-25T02:59:08.581Z,30.50
2022-11-25T03:03:13.822Z,29.10
2022-11-25T03:07:17.894Z,29.10
2022-11-25T03:11:21.594Z,23.60
2022-11-25T03:15:25.565Z,28.60
2022-11-25T03:19:29.440Z,26.60
2022-11-25T03:23:32.843Z,27.00
2022-11-25T03:27:37.002Z,27.60
2022-11-25T03:31:40.922Z,27.80
2022-11-25T03:35:48.630Z,25.80
2022-11-25T03:39:52.962Z,23.20
2022-11-25T03:43:56.469Z,22.90
2022-11-25T03:48:00.471Z,21.20
2022-11-25T03:52:05.490Z,23.70
2022-11-25T03:56:10.528Z,24.30
2022-11-25T04:00:14.181Z,27.50
2022-11-25T04:04:28.402Z,31.10
2022-11-25T04:08:32.577Z,29.10
2022-11-25T04:12:50.164Z,28.40
2022-11-25T04:16:57.117Z,27.60
2022-11-25T04:21:00.593Z,23.10
2022-11-25T04:25:05.109Z,23.50
2022-11-25T04:29:09.074Z,20.90
2022-11-25T04:33:14.033Z,26.90
2022-11-25T04:37:18.731Z,26.20
2022-11-25T04:41:23.669Z,25.50
2022-11-25T04:45:28.766Z,23.90
2022-11-25T04:49:33.438Z,23.60
2022-11-25T04:53:37.825Z,26.50
2022-11-25T04:57:43.142Z,25.10
2022-11-25T05:01:47.187Z,24.60
2022-11-25T05:05:59.825Z,24.30
2022-11-25T05:10:03.704Z,26.20
2022-11-25T05:14:13.484Z,22.80
2022-11-25T05:18:17.039Z,24.50
2022-11-25T05:22:27.831Z,26.30
2022-11-25T05:26:31.728Z,29.20
2022-11-25T05:30:36.655Z,25.70
2022-11-25T05:34:43.294Z,25.70
2022-11-25T05:38:46.774Z,24.10
2022-11-25T05:42:58.423Z,25.30
2022-11-25T05:47:01.881Z,23.30
2022-11-25T05:51:06.445Z,23.40
2022-11-25T05:55:10.089Z,24.70
2022-11-25T05:59:13.489Z,20.50
2022-11-25T06:03:27.156Z,23.60
2022-11-25T06:07:30.831Z,28.60
2022-11-25T06:11:38.054Z,26.00
2022-11-25T06:15:43.160Z,23.30
2022-11-25T06:19:48.009Z,27.80
2022-11-25T06:23:51.722Z,27.20
2022-11-25T06:28:12.387Z,23.80
2022-11-25T06:32:18.127Z,23.70
2022-11-25T06:36:31.786Z,20.80
2022-11-25T06:40:35.692Z,18.60
2022-11-25T06:44:42.230Z,26.00
2022-11-25T06:48:54.597Z,30.10
2022-11-25T06:53:00.295Z,25.80
2022-11-25T06:57:03.880Z,23.70
2022-11-25T07:01:20.621Z,22.70
2022-11-25T07:05:29.208Z,24.00
2022-11-25T07:09:33.098Z,25.70
2022-11-25T07:13:37.344Z,20.90
2022-11-25T07:17:40.699Z,18.90
2022-11-25T07:21:45.990Z,20.40
2022-11-25T07:25:50.112Z,20.80
2022-11-25T07:30:10.645Z,24.60
2022-11-25T07:34:21.910Z,23.90
2022-11-25T07:38:28.215Z,24.50
2022-11-25T07:42:32.260Z,23.00
2022-11-25T07:46:50.399Z,22.40
2022-11-25T07:50:54.280Z,25.70
2022-11-25T07:54:57.681Z,24.50
2022-11-25T07:59:05.868Z,20.70
2022-11-25T08:03:11.265Z,16.60
2022-11-25T08:07:15.607Z,24.70
2022-11-25T08:11:30.099Z,23.50
2022-11-25T08:15:35.067Z,16.80
2022-11-25T08:19:41.179Z,18.70
2022-11-25T08:23:49.666Z,18.90
2022-11-25T08:27:53.285Z,18.90
2022-11-25T08:32:00.257Z,16.60
2022-11-25T08:36:07.245Z,19.90
2022-11-25T08:40:11.208Z,18.50
2022-11-25T08:44:14.690Z,18.80
2022-11-25T08:48:21.058Z,24.40
2022-11-25T08:52:32.638Z,27.00
2022-11-25T08:56:58.112Z,23.90
2022-11-25T09:01:08.207Z,22.80
2022-11-25T09:05:17.538Z,27.00
2022-11-25T09:09:22.031Z,24.80
2022-11-25T09:13:27.513Z,23.40
2022-11-25T09:17:31.854Z,23.30
2022-11-25T09:21:38.696Z,23.90
2022-11-25T09:25:42.174Z,22.40
2022-11-25T09:29:46.308Z,24.00
2022-11-25T09:33:50.124Z,21.70
2022-11-25T09:37:57.272Z,24.40
2022-11-25T09:42:47.306Z,23.70
2022-11-25T09:47:08.352Z,24.00
2022-11-25T09:51:50.757Z,21.80
2022-11-25T09:56:06.157Z,22.00
2022-11-25T10:00:19.413Z,24.70
2022-11-25T10:04:31.121Z,26.30
2022-11-25T10:08:48.449Z,24.50
2022-11-25T10:12:58.895Z,26.10
2022-11-25T10:21:40.795Z,25.40
2022-11-25T10:25:54.310Z,33.80
2022-11-25T10:30:17.599Z,29.70
2022-11-25T10:34:43.125Z,24.10
2022-11-25T10:39:02.648Z,30.60
2022-11-25T10:43:15.827Z,26.60
2022-11-25T10:48:04.341Z,31.40
2022-11-25T10:52:26.816Z,28.60
2022-11-25T10:56:30.814Z,29.70
2022-11-25T11:00:39.604Z,27.70
2022-11-25T11:05:00.082Z,26.00
2022-11-25T11:09:06.928Z,28.80
2022-11-25T11:13:33.487Z,31.30
2022-11-25T11:17:37.483Z,29.20
2022-11-25T11:21:45.690Z,30.30
2022-11-25T11:26:01.011Z,32.00
2022-11-25T11:30:17.143Z,32.40
2022-11-25T11:34:51.983Z,31.50
2022-11-25T11:39:18.416Z,31.10
2022-11-25T11:43:58.395Z,33.00
2022-11-25T11:48:30.595Z,31.50
2022-11-25T11:52:58.914Z,27.90
2022-11-25T11:57:29.069Z,31.70
2022-11-25T12:01:49.642Z,28.70
2022-11-25T12:05:58.556Z,29.90
2022-11-25T12:14:42.883Z,27.90
2022-11-25T12:19:13.180Z,31.50
2022-11-25T12:23:45.196Z,32.10
2022-11-25T12:28:08.115Z,30.40
2022-11-25T12:32:37.174Z,29.80
2022-11-25T12:36:44.738Z,31.60
2022-11-25T12:40:57.262Z,29.50
2022-11-25T12:45:11.727Z,29.80
2022-11-25T12:49:35.658Z,28.30
2022-11-25T12:54:01.027Z,32.30
2022-11-25T12:58:19.876Z,30.70
2022-11-25T13:02:26.249Z,32.30
2022-11-25T13:06:39.014Z,32.30
2022-11-25T13:10:52.024Z,31.70
2022-11-25T13:15:14.822Z,31.50
2022-11-25T13:19:21.049Z,31.10
2022-11-25T13:23:29.845Z,29.40
2022-11-25T13:27:53.981Z,33.40
2022-11-25T13:32:27.772Z,30.00
2022-11-25T13:36:55.684Z,32.30
2022-11-25T13:41:02.331Z,30.50
2022-11-25T13:45:26.629Z,31.60
2022-11-25T13:49:58.639Z,33.70
2022-11-25T13:54:06.955Z,40.20
2022-11-25T13:58:36.016Z,37.20
2022-11-25T14:02:44.505Z,32.50
2022-11-25T14:07:05.003Z,36.60
2022-11-25T14:11:11.289Z,40.90
2022-11-25T14:15:52.275Z,42.60
2022-11-25T14:20:33.472Z,46.50
2022-11-25T14:24:35.372Z,42.40
2022-11-25T14:29:12.126Z,39.40
2022-11-25T14:33:21.523Z,34.90
2022-11-25T14:37:39.188Z,45.50
2022-11-25T14:41:59.916Z,37.60
2022-11-25T14:46:25.078Z,78.60
2022-11-25T14:50:34.664Z,51.80
2022-11-25T14:54:42.932Z,40.50
2022-11-25T14:58:48.135Z,36.10
2022-11-25T15:03:05.707Z,34.70
2022-11-25T15:07:31.138Z,34.60
2022-11-25T15:11:35.034Z,34.40
2022-11-25T15:15:38.973Z,35.60
2022-11-25T15:19:41.934Z,37.90
2022-11-25T15:23:46.349Z,35.60
2022-11-25T15:27:53.012Z,38.20
2022-11-25T15:31:56.167Z,36.60
2022-11-25T15:36:01.626Z,38.50
2022-11-25T15:40:33.267Z,35.60
2022-11-25T15:45:06.809Z,33.40
2022-11-25T15:49:20.630Z,34.90
2022-11-25T15:53:31.661Z,35.20
2022-11-25T15:57:38.016Z,33.90
2022-11-25T16:01:40.979Z,36.30
2022-11-25T16:05:53.683Z,37.20
2022-11-25T16:09:58.645Z,38.70
2022-11-25T16:14:23.640Z,36.50
2022-11-25T16:18:57.427Z,36.20
2022-11-25T16:23:11.174Z,36.20
2022-11-25T16:27:29.052Z,33.90
2022-11-25T16:31:33.900Z,36.70
2022-11-25T16:35:37.504Z,34.60
2022-11-25T16:39:40.943Z,35.70
2022-11-25T16:43:46.806Z,36.60
2022-11-25T16:47:50.641Z,36.20
2022-11-25T16:51:52.756Z,38.50
2022-11-25T16:55:55.756Z,34.80
2022-11-25T17:00:00.501Z,37.00
2022-11-25T17:04:12.437Z,37.00
2022-11-25T17:08:18.712Z,39.00
2022-11-25T17:12:30.950Z,36.70
2022-11-25T17:16:33.168Z,36.30
2022-11-25T17:20:35.246Z,38.30
2022-11-25T17:24:39.976Z,36.00
2022-11-25T17:28:42.461Z,36.90
2022-11-25T17:32:48.356Z,37.50
2022-11-25T17:36:53.506Z,38.90
2022-11-25T17:40:56.169Z,37.00
2022-11-25T17:45:00.509Z,38.10
2022-11-25T17:49:06.766Z,40.80
2022-11-25T17:53:09.717Z,41.20
2022-11-25T17:57:22.353Z,42.30
2022-11-25T18:01:25.029Z,39.90
2022-11-25T18:05:30.583Z,38.80
2022-11-25T18:09:33.232Z,36.50
2022-11-25T18:13:41.571Z,42.80
2022-11-25T18:17:46.855Z,37.80
2022-11-25T18:21:49.511Z,40.40
2022-11-25T18:25:54.680Z,40.70
2022-11-25T18:29:57.901Z,42.40
2022-11-25T18:34:00.423Z,44.10
2022-11-25T18:38:03.388Z,41.90
2022-11-25T18:42:07.761Z,44.40
2022-11-25T18:46:10.354Z,41.50
2022-11-25T18:50:30.992Z,39.70
2022-11-25T18:54:33.527Z,38.20
2022-11-25T18:58:35.895Z,45.40
2022-11-25T19:02:38.035Z,42.30
2022-11-25T19:06:42.147Z,47.10
2022-11-25T19:10:48.173Z,43.10
2022-11-25T19:14:53.267Z,36.70
2022-11-25T19:18:56.275Z,37.80
2022-11-25T19:23:01.280Z,40.00
2022-11-25T19:27:04.334Z,35.90
2022-11-25T19:31:06.858Z,36.80
2022-11-25T19:35:16.952Z,35.60
2022-11-25T19:39:19.327Z,39.40
2022-11-25T19:43:28.735Z,36.20
2022-11-25T19:47:30.742Z,35.00
2022-11-25T19:51:34.483Z,35.40
2022-11-25T19:55:36.722Z,33.80
2022-11-25T19:59:38.709Z,34.80
2022-11-25T20:03:47.782Z,37.60
2022-11-25T20:07:50.176Z,44.80
2022-11-25T20:11:58.110Z,45.30
2022-11-25T20:16:00.304Z,41.70
2022-11-25T20:20:09.328Z,43.80
2022-11-25T20:24:15.519Z,41.30
2022-11-25T20:28:20.188Z,36.70
2022-11-25T20:32:32.225Z,44.70
2022-11-25T20:36:34.336Z,44.10
2022-11-25T20:40:43.207Z,39.90
2022-11-25T20:44:45.287Z,40.70
2022-11-25T20:48:47.789Z,46.40
2022-11-25T20:52:51.464Z,40.80
2022-11-25T20:56:56.642Z,48.30
2022-11-25T21:01:00.227Z,49.90
2022-11-25T21:05:04.729Z,47.50
2022-11-25T21:09:18.734Z,42.70
2022-11-25T21:13:29.068Z,45.90
2022-11-25T21:17:31.844Z,49.50
2022-11-25T21:21:38.315Z,46.10
2022-11-25T21:25:40.795Z,44.70
2022-11-25T21:29:44.771Z,49.20
2022-11-25T21:33:48.465Z,41.60
2022-11-25T21:37:51.051Z,42.60
2022-11-25T21:41:54.382Z,48.20
2022-11-25T21:46:08.795Z,42.30
2022-11-25T21:50:17.830Z,43.30
2022-11-25T21:54:19.899Z,40.60
2022-11-25T21:58:28.285Z,42.10
2022-11-25T22:02:30.505Z,42.70
2022-11-25T22:06:33.193Z,43.10
2022-11-25T22:10:40.604Z,43.20
2022-11-25T22:14:46.373Z,46.10
2022-11-25T22:18:51.063Z,43.90
2022-11-25T22:22:55.831Z,44.80
2022-11-25T22:26:58.955Z,45.30
2022-11-25T22:31:07.019Z,45.30
2022-11-25T22:43:27.582Z,41.20
2022-11-25T22:47:37.184Z,44.50
2022-11-25T22:51:39.476Z,45.60
2022-11-25T22:55:41.945Z,40.90
2022-11-25T22:59:44.170Z,44.60
2022-11-25T23:03:46.518Z,42.00
2022-11-25T23:07:48.678Z,39.10
2022-11-25T23:11:50.776Z,41.50
2022-11-25T23:15:59.075Z,42.30
2022-11-25T23:20:01.443Z,46.20
2022-11-25T23:24:11.225Z,40.00
2022-11-25T23:28:13.462Z,44.40
2022-11-25T23:32:19.300Z,40.90
2022-11-25T23:36:29.281Z,37.80
2022-11-25T23:40:31.559Z,38.00
2022-11-25T23:44:33.639Z,38.30
2022-11-25T23:48:36.023Z,37.90
2022-11-25T23:52:38.394Z,38.00
2022-11-25T23:56:40.480Z,38.00
